sensor_id;sensor_type;location;lat;lon;timestamp;pressure;altitude;pressure_sealevel;temperature;humidity
29385;BME280;16367;48.736;9.218;2023-02-28T00:01:52;-23100.25;;;-2.14;70.86
29385;BME280;16367;48.736;9.218;2023-02-28T00:03:55;-23098.03;;;-2.21;71.00
29385;BME280;16367;48.736;9.218;2023-02-28T00:05:57;-23097.84;;;-2.21;70.99
29385;BME280;16367;48.736;9.218;2023-02-28T00:08:00;-23098.03;;;-2.21;71.60
29385;BME280;16367;48.736;9.218;2023-02-28T00:10:06;-23096.91;;;-2.24;71.56
29385;BME280;16367;48.736;9.218;2023-02-28T00:12:09;-23097.22;;;-2.23;71.75
29385;BME280;16367;48.736;9.218;2023-02-28T00:14:12;-23096.56;;;-2.26;71.98
29385;BME280;16367;48.736;9.218;2023-02-28T00:16:17;-23094.97;;;-2.31;72.04
29385;BME280;16367;48.736;9.218;2023-02-28T00:18:20;-23095.31;;;-2.30;72.19
29385;BME280;16367;48.736;9.218;2023-02-28T00:20:24;-23095.31;;;-2.30;72.64
29385;BME280;16367;48.736;9.218;2023-02-28T00:22:26;-23092.75;;;-2.38;72.53
29385;BME280;16367;48.736;9.218;2023-02-28T00:24:29;-23093.69;;;-2.35;72.79
29385;BME280;16367;48.736;9.218;2023-02-28T00:26:33;-23091.94;;;-2.40;72.99
29385;BME280;16367;48.736;9.218;2023-02-28T00:28:36;-23090.81;;;-2.44;73.40
29385;BME280;16367;48.736;9.218;2023-02-28T00:30:39;-23089.53;;;-2.48;73.44
29385;BME280;16367;48.736;9.218;2023-02-28T00:32:42;-23091.47;;;-2.42;73.45
29385;BME280;16367;48.736;9.218;2023-02-28T00:34:44;-23091.78;;;-2.41;73.44
29385;BME280;16367;48.736;9.218;2023-02-28T00:36:47;-23090.66;;;-2.44;73.77
29385;BME280;16367;48.736;9.218;2023-02-28T00:38:51;-23090.34;;;-2.45;73.95
29385;BME280;16367;48.736;9.218;2023-02-28T00:40:54;-23089.22;;;-2.49;74.08
29385;BME280;16367;48.736;9.218;2023-02-28T00:42:58;-23086.66;;;-2.57;74.47
29385;BME280;16367;48.736;9.218;2023-02-28T00:45:01;-23084.41;;;-2.64;75.12
29385;BME280;16367;48.736;9.218;2023-02-28T00:47:05;-23081.84;;;-2.72;75.53
29385;BME280;16367;48.736;9.218;2023-02-28T00:49:08;-23082.19;;;-2.71;75.55
29385;BME280;16367;48.736;9.218;2023-02-28T00:51:11;-23082.19;;;-2.71;75.78
29385;BME280;16367;48.736;9.218;2023-02-28T00:53:13;-23086.34;;;-2.58;75.67
29385;BME280;16367;48.736;9.218;2023-02-28T00:55:16;-23083.78;;;-2.66;75.43
29385;BME280;16367;48.736;9.218;2023-02-28T00:57:19;-23084.56;;;-2.63;75.52
29385;BME280;16367;48.736;9.218;2023-02-28T00:59:23;-23082.97;;;-2.68;75.72
29385;BME280;16367;48.736;9.218;2023-02-28T01:01:26;-23083.13;;;-2.68;76.30
29385;BME280;16367;48.736;9.218;2023-02-28T01:03:29;-23083.94;;;-2.65;76.23
29385;BME280;16367;48.736;9.218;2023-02-28T01:05:32;-23082.81;;;-2.69;76.57
29385;BME280;16367;48.736;9.218;2023-02-28T01:07:34;-23081.22;;;-2.74;76.64
29385;BME280;16367;48.736;9.218;2023-02-28T01:09:37;-23079.63;;;-2.79;76.83
29385;BME280;16367;48.736;9.218;2023-02-28T01:11:41;-23079.94;;;-2.78;77.38
29385;BME280;16367;48.736;9.218;2023-02-28T01:13:46;-23078.97;;;-2.81;77.77
29385;BME280;16367;48.736;9.218;2023-02-28T01:15:51;-23080.91;;;-2.75;77.65
29385;BME280;16367;48.736;9.218;2023-02-28T01:17:54;-23081.22;;;-2.74;78.22
29385;BME280;16367;48.736;9.218;2023-02-28T01:19:57;-23081.22;;;-2.74;77.84
29385;BME280;16367;48.736;9.218;2023-02-28T01:22:01;-23078.81;;;-2.81;77.83
29385;BME280;16367;48.736;9.218;2023-02-28T01:24:05;-23081.69;;;-2.72;77.97
29385;BME280;16367;48.736;9.218;2023-02-28T01:26:10;-23081.06;;;-2.74;78.64
29385;BME280;16367;48.736;9.218;2023-02-28T01:28:13;-23079.44;;;-2.79;78.35
29385;BME280;16367;48.736;9.218;2023-02-28T01:30:16;-23077.53;;;-2.85;78.73
29385;BME280;16367;48.736;9.218;2023-02-28T01:32:20;-23078.00;;;-2.84;79.06
29385;BME280;16367;48.736;9.218;2023-02-28T01:34:23;-23079.13;;;-2.80;79.47
29385;BME280;16367;48.736;9.218;2023-02-28T01:36:26;-23078.50;;;-2.82;79.60
29385;BME280;16367;48.736;9.218;2023-02-28T01:38:29;-23079.13;;;-2.80;79.79
29385;BME280;16367;48.736;9.218;2023-02-28T01:40:31;-23078.97;;;-2.81;80.04
29385;BME280;16367;48.736;9.218;2023-02-28T01:42:34;-23078.00;;;-2.84;80.30
29385;BME280;16367;48.736;9.218;2023-02-28T01:45:07;-23078.97;;;-2.81;80.29
29385;BME280;16367;48.736;9.218;2023-02-28T01:47:20;-23077.69;;;-2.85;80.49
29385;BME280;16367;48.736;9.218;2023-02-28T01:49:24;-23077.06;;;-2.87;81.01
29385;BME280;16367;48.736;9.218;2023-02-28T01:51:30;-23078.00;;;-2.84;80.85
29385;BME280;16367;48.736;9.218;2023-02-28T01:53:37;-23075.44;;;-2.92;81.56
29385;BME280;16367;48.736;9.218;2023-02-28T01:55:42;-23076.72;;;-2.88;81.89
29385;BME280;16367;48.736;9.218;2023-02-28T01:57:50;-23077.06;;;-2.87;81.53
29385;BME280;16367;48.736;9.218;2023-02-28T01:59:57;-23076.72;;;-2.88;82.03
29385;BME280;16367;48.736;9.218;2023-02-28T02:02:01;-23076.09;;;-2.90;81.94
29385;BME280;16367;48.736;9.218;2023-02-28T02:04:06;-23075.59;;;-2.91;82.61
29385;BME280;16367;48.736;9.218;2023-02-28T02:06:08;-23076.41;;;-2.89;82.75
29385;BME280;16367;48.736;9.218;2023-02-28T02:08:13;-23077.22;;;-2.86;82.80
29385;BME280;16367;48.736;9.218;2023-02-28T02:10:18;-23077.06;;;-2.87;82.98
29385;BME280;16367;48.736;9.218;2023-02-28T02:12:26;-23077.53;;;-2.85;82.95
29385;BME280;16367;48.736;9.218;2023-02-28T02:14:43;-23077.38;;;-2.86;83.22
29385;BME280;16367;48.736;9.218;2023-02-28T02:17:03;-23074.50;;;-2.95;83.34
29385;BME280;16367;48.736;9.218;2023-02-28T02:19:18;-23078.81;;;-2.81;83.54
29385;BME280;16367;48.736;9.218;2023-02-28T02:21:46;-23077.22;;;-2.86;83.77
29385;BME280;16367;48.736;9.218;2023-02-28T02:24:27;-23076.72;;;-2.88;84.46
29385;BME280;16367;48.736;9.218;2023-02-28T02:26:52;-23078.00;;;-2.84;84.23
29385;BME280;16367;48.736;9.218;2023-02-28T02:31:45;-23076.25;;;-2.89;84.76
29385;BME280;16367;48.736;9.218;2023-02-28T02:36:35;-23076.09;;;-2.90;85.25
29385;BME280;16367;48.736;9.218;2023-02-28T02:38:44;-23077.69;;;-2.85;85.15
29385;BME280;16367;48.736;9.218;2023-02-28T02:40:57;-23077.53;;;-2.85;85.42
29385;BME280;16367;48.736;9.218;2023-02-28T02:43:04;-23079.13;;;-2.80;85.23
29385;BME280;16367;48.736;9.218;2023-02-28T02:45:12;-23080.91;;;-2.75;85.30
29385;BME280;16367;48.736;9.218;2023-02-28T02:47:20;-23081.84;;;-2.72;85.57
29385;BME280;16367;48.736;9.218;2023-02-28T02:49:28;-23078.31;;;-2.83;85.91
29385;BME280;16367;48.736;9.218;2023-02-28T02:51:33;-23080.56;;;-2.76;86.21
29385;BME280;16367;48.736;9.218;2023-02-28T02:53:41;-23081.53;;;-2.73;85.73
29385;BME280;16367;48.736;9.218;2023-02-28T02:55:47;-23080.25;;;-2.77;86.06
29385;BME280;16367;48.736;9.218;2023-02-28T02:57:58;-23081.53;;;-2.73;86.29
29385;BME280;16367;48.736;9.218;2023-02-28T03:00:03;-23080.56;;;-2.76;86.63
29385;BME280;16367;48.736;9.218;2023-02-28T03:02:10;-23082.50;;;-2.70;86.19
29385;BME280;16367;48.736;9.218;2023-02-28T03:04:18;-23080.91;;;-2.75;86.38
29385;BME280;16367;48.736;9.218;2023-02-28T03:06:22;-23080.09;;;-2.77;86.57
29385;BME280;16367;48.736;9.218;2023-02-28T03:08:26;-23081.84;;;-2.72;86.81
29385;BME280;16367;48.736;9.218;2023-02-28T03:10:33;-23081.69;;;-2.72;87.26
29385;BME280;16367;48.736;9.218;2023-02-28T03:12:41;-23080.41;;;-2.76;87.12
29385;BME280;16367;48.736;9.218;2023-02-28T03:14:56;-23082.50;;;-2.70;87.38
29385;BME280;16367;48.736;9.218;2023-02-28T03:17:30;-23080.56;;;-2.76;87.37
29385;BME280;16367;48.736;9.218;2023-02-28T03:19:47;-23082.66;;;-2.69;87.76
29385;BME280;16367;48.736;9.218;2023-02-28T03:22:02;-23082.34;;;-2.70;87.96
29385;BME280;16367;48.736;9.218;2023-02-28T03:24:11;-23080.56;;;-2.76;87.83
29385;BME280;16367;48.736;9.218;2023-02-28T03:26:21;-23081.22;;;-2.74;87.99
29385;BME280;16367;48.736;9.218;2023-02-28T03:28:31;-23083.44;;;-2.67;88.58
29385;BME280;16367;48.736;9.218;2023-02-28T03:30:39;-23083.94;;;-2.65;88.68
29385;BME280;16367;48.736;9.218;2023-02-28T03:32:51;-23084.72;;;-2.63;88.75
29385;BME280;16367;48.736;9.218;2023-02-28T03:34:58;-23087.31;;;-2.55;88.31
29385;BME280;16367;48.736;9.218;2023-02-28T03:37:09;-23084.56;;;-2.63;88.52
29385;BME280;16367;48.736;9.218;2023-02-28T03:39:18;-23087.13;;;-2.55;89.10
29385;BME280;16367;48.736;9.218;2023-02-28T03:41:25;-23084.91;;;-2.62;89.28
29385;BME280;16367;48.736;9.218;2023-02-28T03:43:34;-23084.41;;;-2.64;89.09
29385;BME280;16367;48.736;9.218;2023-02-28T03:45:41;-23086.00;;;-2.59;89.36
29385;BME280;16367;48.736;9.218;2023-02-28T03:47:50;-23085.69;;;-2.60;89.27
29385;BME280;16367;48.736;9.218;2023-02-28T03:49:57;-23086.66;;;-2.57;89.31
29385;BME280;16367;48.736;9.218;2023-02-28T03:52:03;-23088.09;;;-2.52;88.99
29385;BME280;16367;48.736;9.218;2023-02-28T03:54:12;-23086.34;;;-2.58;89.19
29385;BME280;16367;48.736;9.218;2023-02-28T03:56:20;-23088.25;;;-2.52;89.58
29385;BME280;16367;48.736;9.218;2023-02-28T03:58:27;-23086.00;;;-2.59;89.72
29385;BME280;16367;48.736;9.218;2023-02-28T04:00:35;-23086.34;;;-2.58;89.79
29385;BME280;16367;48.736;9.218;2023-02-28T04:02:40;-23086.19;;;-2.58;89.88
29385;BME280;16367;48.736;9.218;2023-02-28T04:04:42;-23086.97;;;-2.56;89.74
29385;BME280;16367;48.736;9.218;2023-02-28T04:06:50;-23087.94;;;-2.53;90.05
29385;BME280;16367;48.736;9.218;2023-02-28T04:08:53;-23089.53;;;-2.48;89.89
29385;BME280;16367;48.736;9.218;2023-02-28T04:11:01;-23090.81;;;-2.44;89.71
29385;BME280;16367;48.736;9.218;2023-02-28T04:13:06;-23089.22;;;-2.49;89.62
29385;BME280;16367;48.736;9.218;2023-02-28T04:15:09;-23090.03;;;-2.46;89.81
29385;BME280;16367;48.736;9.218;2023-02-28T04:17:12;-23091.47;;;-2.42;90.02
29385;BME280;16367;48.736;9.218;2023-02-28T04:19:15;-23093.84;;;-2.34;89.63
29385;BME280;16367;48.736;9.218;2023-02-28T04:21:17;-23092.56;;;-2.38;89.96
29385;BME280;16367;48.736;9.218;2023-02-28T04:23:22;-23089.69;;;-2.47;90.09
29385;BME280;16367;48.736;9.218;2023-02-28T04:25:25;-23090.19;;;-2.46;89.96
29385;BME280;16367;48.736;9.218;2023-02-28T04:27:29;-23093.69;;;-2.35;89.66
29385;BME280;16367;48.736;9.218;2023-02-28T04:29:33;-23095.63;;;-2.29;89.89
29385;BME280;16367;48.736;9.218;2023-02-28T04:31:35;-23093.06;;;-2.37;89.63
29385;BME280;16367;48.736;9.218;2023-02-28T04:33:38;-23094.97;;;-2.31;89.54
29385;BME280;16367;48.736;9.218;2023-02-28T04:35:41;-23093.22;;;-2.36;89.73
29385;BME280;16367;48.736;9.218;2023-02-28T04:37:43;-23093.06;;;-2.37;89.89
29385;BME280;16367;48.736;9.218;2023-02-28T04:39:46;-23095.31;;;-2.30;89.66
29385;BME280;16367;48.736;9.218;2023-02-28T04:41:49;-23094.50;;;-2.32;89.91
29385;BME280;16367;48.736;9.218;2023-02-28T04:43:54;-23095.13;;;-2.30;89.85
29385;BME280;16367;48.736;9.218;2023-02-28T04:46:00;-23094.34;;;-2.33;90.07
29385;BME280;16367;48.736;9.218;2023-02-28T04:48:03;-23095.94;;;-2.28;90.08
29385;BME280;16367;48.736;9.218;2023-02-28T04:50:07;-23093.38;;;-2.36;90.33
29385;BME280;16367;48.736;9.218;2023-02-28T04:52:10;-23091.63;;;-2.41;90.63
29385;BME280;16367;48.736;9.218;2023-02-28T04:54:14;-23093.06;;;-2.37;90.92
29385;BME280;16367;48.736;9.218;2023-02-28T04:56:17;-23096.09;;;-2.27;90.17
29385;BME280;16367;48.736;9.218;2023-02-28T04:58:20;-23096.75;;;-2.25;90.09
29385;BME280;16367;48.736;9.218;2023-02-28T05:00:25;-23095.63;;;-2.29;90.24
29385;BME280;16367;48.736;9.218;2023-02-28T05:02:30;-23095.13;;;-2.30;90.57
29385;BME280;16367;48.736;9.218;2023-02-28T05:04:32;-23094.34;;;-2.33;90.54
29385;BME280;16367;48.736;9.218;2023-02-28T05:06:36;-23092.56;;;-2.38;90.45
29385;BME280;16367;48.736;9.218;2023-02-28T05:08:39;-23093.84;;;-2.34;90.92
29385;BME280;16367;48.736;9.218;2023-02-28T05:10:42;-23094.97;;;-2.31;90.75
29385;BME280;16367;48.736;9.218;2023-02-28T05:12:44;-23093.38;;;-2.36;90.98
29385;BME280;16367;48.736;9.218;2023-02-28T05:14:48;-23091.78;;;-2.41;91.81
29385;BME280;16367;48.736;9.218;2023-02-28T05:16:52;-23094.34;;;-2.33;91.42
29385;BME280;16367;48.736;9.218;2023-02-28T05:18:54;-23093.06;;;-2.37;91.53
29385;BME280;16367;48.736;9.218;2023-02-28T05:20:57;-23095.63;;;-2.29;91.74
29385;BME280;16367;48.736;9.218;2023-02-28T05:23:00;-23096.75;;;-2.25;91.51
29385;BME280;16367;48.736;9.218;2023-02-28T05:25:05;-23098.03;;;-2.21;91.58
29385;BME280;16367;48.736;9.218;2023-02-28T05:27:08;-23094.03;;;-2.34;91.93
29385;BME280;16367;48.736;9.218;2023-02-28T05:29:11;-23096.25;;;-2.27;92.30
29385;BME280;16367;48.736;9.218;2023-02-28T05:31:14;-23096.91;;;-2.24;91.84
29385;BME280;16367;48.736;9.218;2023-02-28T05:33:19;-23102.66;;;-2.06;91.86
29385;BME280;16367;48.736;9.218;2023-02-28T05:35:21;-23100.41;;;-2.13;91.38
29385;BME280;16367;48.736;9.218;2023-02-28T05:37:24;-23098.66;;;-2.19;91.84
29385;BME280;16367;48.736;9.218;2023-02-28T05:39:27;-23100.41;;;-2.13;92.43
29385;BME280;16367;48.736;9.218;2023-02-28T05:41:30;-23100.59;;;-2.13;92.15
29385;BME280;16367;48.736;9.218;2023-02-28T05:43:33;-23100.09;;;-2.14;92.59
29385;BME280;16367;48.736;9.218;2023-02-28T05:45:36;-23100.75;;;-2.12;92.00
29385;BME280;16367;48.736;9.218;2023-02-28T05:47:39;-23101.53;;;-2.10;91.95
29385;BME280;16367;48.736;9.218;2023-02-28T05:49:43;-23099.63;;;-2.16;92.05
29385;BME280;16367;48.736;9.218;2023-02-28T05:51:45;-23096.56;;;-2.26;92.11
29385;BME280;16367;48.736;9.218;2023-02-28T05:53:48;-23100.41;;;-2.13;92.24
29385;BME280;16367;48.736;9.218;2023-02-28T05:55:50;-23101.22;;;-2.11;92.25
29385;BME280;16367;48.736;9.218;2023-02-28T05:57:53;-23101.06;;;-2.11;92.11
29385;BME280;16367;48.736;9.218;2023-02-28T05:59:56;-23099.63;;;-2.16;92.33
29385;BME280;16367;48.736;9.218;2023-02-28T06:01:58;-23098.34;;;-2.20;92.00
29385;BME280;16367;48.736;9.218;2023-02-28T06:04:03;-23100.09;;;-2.14;91.91
29385;BME280;16367;48.736;9.218;2023-02-28T06:06:07;-23102.03;;;-2.08;91.80
29385;BME280;16367;48.736;9.218;2023-02-28T06:08:09;-23102.97;;;-2.05;91.69
29385;BME280;16367;48.736;9.218;2023-02-28T06:10:13;-23101.88;;;-2.09;91.98
29385;BME280;16367;48.736;9.218;2023-02-28T06:12:16;-23105.06;;;-1.99;91.46
29385;BME280;16367;48.736;9.218;2023-02-28T06:14:20;-23102.34;;;-2.07;92.32
29385;BME280;16367;48.736;9.218;2023-02-28T06:16:23;-23104.59;;;-2.00;91.65
29385;BME280;16367;48.736;9.218;2023-02-28T06:18:26;-23102.97;;;-2.05;91.43
29385;BME280;16367;48.736;9.218;2023-02-28T06:20:29;-23106.19;;;-1.95;91.46
29385;BME280;16367;48.736;9.218;2023-02-28T06:22:33;-23103.47;;;-2.04;91.38
29385;BME280;16367;48.736;9.218;2023-02-28T06:24:36;-23104.75;;;-2.00;91.41
29385;BME280;16367;48.736;9.218;2023-02-28T06:26:39;-23103.31;;;-2.04;91.28
29385;BME280;16367;48.736;9.218;2023-02-28T06:28:42;-23106.19;;;-1.95;91.16
29385;BME280;16367;48.736;9.218;2023-02-28T06:30:44;-23105.88;;;-1.96;91.01
29385;BME280;16367;48.736;9.218;2023-02-28T06:32:47;-23107.47;;;-1.91;90.95
29385;BME280;16367;48.736;9.218;2023-02-28T06:34:50;-23106.81;;;-1.93;90.87
29385;BME280;16367;48.736;9.218;2023-02-28T06:36:53;-23106.66;;;-1.94;91.12
29385;BME280;16367;48.736;9.218;2023-02-28T06:38:57;-23108.41;;;-1.88;90.81
29385;BME280;16367;48.736;9.218;2023-02-28T06:41:00;-23106.50;;;-1.94;90.28
29385;BME280;16367;48.736;9.218;2023-02-28T06:43:03;-23109.53;;;-1.85;89.65
29385;BME280;16367;48.736;9.218;2023-02-28T06:45:07;-23111.31;;;-1.79;88.92
29385;BME280;16367;48.736;9.218;2023-02-28T06:47:11;-23113.22;;;-1.73;88.26
29385;BME280;16367;48.736;9.218;2023-02-28T06:49:14;-23109.84;;;-1.84;88.80
29385;BME280;16367;48.736;9.218;2023-02-28T06:51:19;-23114.66;;;-1.69;88.37
29385;BME280;16367;48.736;9.218;2023-02-28T06:53:24;-23111.63;;;-1.78;88.41
29385;BME280;16367;48.736;9.218;2023-02-28T06:55:27;-23111.94;;;-1.77;88.06
29385;BME280;16367;48.736;9.218;2023-02-28T06:57:32;-23113.38;;;-1.73;87.69
29385;BME280;16367;48.736;9.218;2023-02-28T06:59:35;-23111.94;;;-1.77;87.31
29385;BME280;16367;48.736;9.218;2023-02-28T07:01:38;-23112.75;;;-1.75;87.68
29385;BME280;16367;48.736;9.218;2023-02-28T07:03:41;-23115.78;;;-1.65;86.74
29385;BME280;16367;48.736;9.218;2023-02-28T07:05:44;-23112.56;;;-1.75;86.91
29385;BME280;16367;48.736;9.218;2023-02-28T07:07:47;-23115.16;;;-1.67;87.04
29385;BME280;16367;48.736;9.218;2023-02-28T07:09:49;-23116.75;;;-1.62;86.68
29385;BME280;16367;48.736;9.218;2023-02-28T07:11:53;-23116.75;;;-1.62;86.73
29385;BME280;16367;48.736;9.218;2023-02-28T07:13:57;-23122.19;;;-1.45;86.45
29385;BME280;16367;48.736;9.218;2023-02-28T07:16:01;-23116.09;;;-1.64;86.68
29385;BME280;16367;48.736;9.218;2023-02-28T07:18:05;-23117.88;;;-1.59;86.50
29385;BME280;16367;48.736;9.218;2023-02-28T07:20:08;-23118.66;;;-1.56;85.89
29385;BME280;16367;48.736;9.218;2023-02-28T07:22:11;-23116.09;;;-1.64;85.93
29385;BME280;16367;48.736;9.218;2023-02-28T07:24:16;-23120.59;;;-1.50;85.66
29385;BME280;16367;48.736;9.218;2023-02-28T07:26:19;-23121.69;;;-1.46;86.02
29385;BME280;16367;48.736;9.218;2023-02-28T07:28:24;-23123.47;;;-1.41;85.29
29385;BME280;16367;48.736;9.218;2023-02-28T07:30:27;-23120.41;;;-1.51;85.18
29385;BME280;16367;48.736;9.218;2023-02-28T07:32:30;-23121.22;;;-1.48;85.51
29385;BME280;16367;48.736;9.218;2023-02-28T07:34:32;-23124.41;;;-1.38;84.99
29385;BME280;16367;48.736;9.218;2023-02-28T07:36:35;-23124.09;;;-1.39;84.87
29385;BME280;16367;48.736;9.218;2023-02-28T07:38:38;-23121.53;;;-1.47;84.48
29385;BME280;16367;48.736;9.218;2023-02-28T07:40:40;-23125.53;;;-1.34;83.75
29385;BME280;16367;48.736;9.218;2023-02-28T07:42:43;-23123.78;;;-1.40;84.08
29385;BME280;16367;48.736;9.218;2023-02-28T07:44:47;-23119.63;;;-1.53;84.45
29385;BME280;16367;48.736;9.218;2023-02-28T07:46:52;-23122.34;;;-1.44;84.34
29385;BME280;16367;48.736;9.218;2023-02-28T07:48:55;-23124.75;;;-1.37;84.69
29385;BME280;16367;48.736;9.218;2023-02-28T07:51:01;-23124.09;;;-1.39;84.13
29385;BME280;16367;48.736;9.218;2023-02-28T07:53:03;-23123.78;;;-1.40;84.29
29385;BME280;16367;48.736;9.218;2023-02-28T07:55:08;-23123.63;;;-1.40;84.13
29385;BME280;16367;48.736;9.218;2023-02-28T07:57:11;-23124.25;;;-1.38;83.89
29385;BME280;16367;48.736;9.218;2023-02-28T07:59:14;-23120.91;;;-1.49;83.89
29385;BME280;16367;48.736;9.218;2023-02-28T08:01:18;-23124.41;;;-1.38;83.75
29385;BME280;16367;48.736;9.218;2023-02-28T08:03:22;-23122.81;;;-1.43;84.17
29385;BME280;16367;48.736;9.218;2023-02-28T08:05:25;-23126.03;;;-1.33;84.00
29385;BME280;16367;48.736;9.218;2023-02-28T08:07:28;-23127.63;;;-1.28;83.73
29385;BME280;16367;48.736;9.218;2023-02-28T08:09:30;-23124.91;;;-1.36;84.19
29385;BME280;16367;48.736;9.218;2023-02-28T08:11:33;-23129.53;;;-1.22;83.41
29385;BME280;16367;48.736;9.218;2023-02-28T08:13:36;-23130.00;;;-1.20;83.27
29385;BME280;16367;48.736;9.218;2023-02-28T08:15:40;-23135.13;;;-1.04;83.20
29385;BME280;16367;48.736;9.218;2023-02-28T08:17:44;-23130.81;;;-1.18;82.97
29385;BME280;16367;48.736;9.218;2023-02-28T08:19:47;-23130.66;;;-1.18;83.41
29385;BME280;16367;48.736;9.218;2023-02-28T08:21:49;-23131.94;;;-1.14;83.04
29385;BME280;16367;48.736;9.218;2023-02-28T08:23:52;-23131.94;;;-1.14;82.96
29385;BME280;16367;48.736;9.218;2023-02-28T08:25:55;-23129.84;;;-1.21;83.24
29385;BME280;16367;48.736;9.218;2023-02-28T08:27:58;-23134.66;;;-1.06;83.06
29385;BME280;16367;48.736;9.218;2023-02-28T08:30:00;-23140.09;;;-0.89;82.10
29385;BME280;16367;48.736;9.218;2023-02-28T08:32:04;-23129.22;;;-1.23;82.58
29385;BME280;16367;48.736;9.218;2023-02-28T08:34:22;-23131.78;;;-1.15;82.92
29385;BME280;16367;48.736;9.218;2023-02-28T08:36:25;-23136.88;;;-0.99;82.11
29385;BME280;16367;48.736;9.218;2023-02-28T08:38:30;-23128.91;;;-1.24;82.03
29385;BME280;16367;48.736;9.218;2023-02-28T08:40:32;-23131.63;;;-1.15;82.98
29385;BME280;16367;48.736;9.218;2023-02-28T08:42:35;-23135.28;;;-1.04;82.22
29385;BME280;16367;48.736;9.218;2023-02-28T08:44:38;-23133.06;;;-1.11;82.61
29385;BME280;16367;48.736;9.218;2023-02-28T08:46:41;-23138.97;;;-0.92;81.79
29385;BME280;16367;48.736;9.218;2023-02-28T08:48:44;-23134.34;;;-1.07;82.46
29385;BME280;16367;48.736;9.218;2023-02-28T08:50:56;-23134.03;;;-1.08;82.30
29385;BME280;16367;48.736;9.218;2023-02-28T08:53:07;-23134.81;;;-1.05;81.85
29385;BME280;16367;48.736;9.218;2023-02-28T08:55:10;-23134.81;;;-1.05;81.88
29385;BME280;16367;48.736;9.218;2023-02-28T08:57:13;-23137.38;;;-0.97;81.69
29385;BME280;16367;48.736;9.218;2023-02-28T08:59:16;-23133.69;;;-1.09;81.72
29385;BME280;16367;48.736;9.218;2023-02-28T09:01:21;-23134.50;;;-1.06;82.15
29385;BME280;16367;48.736;9.218;2023-02-28T09:03:24;-23135.94;;;-1.02;82.29
29385;BME280;16367;48.736;9.218;2023-02-28T09:05:28;-23130.19;;;-1.20;82.77
29385;BME280;16367;48.736;9.218;2023-02-28T09:07:32;-23130.50;;;-1.19;82.21
29385;BME280;16367;48.736;9.218;2023-02-28T09:09:35;-23134.03;;;-1.08;81.84
29385;BME280;16367;48.736;9.218;2023-02-28T09:11:37;-23142.50;;;-0.81;81.30
29385;BME280;16367;48.736;9.218;2023-02-28T09:13:40;-23139.13;;;-0.92;81.11
29385;BME280;16367;48.736;9.218;2023-02-28T09:15:43;-23142.34;;;-0.82;80.90
29385;BME280;16367;48.736;9.218;2023-02-28T09:17:46;-23141.53;;;-0.84;81.08
29385;BME280;16367;48.736;9.218;2023-02-28T09:19:49;-23137.22;;;-0.98;81.17
29385;BME280;16367;48.736;9.218;2023-02-28T09:21:52;-23141.22;;;-0.85;80.71
29385;BME280;16367;48.736;9.218;2023-02-28T09:23:56;-23148.56;;;-0.62;80.32
29385;BME280;16367;48.736;9.218;2023-02-28T09:25:58;-23145.84;;;-0.70;79.86
29385;BME280;16367;48.736;9.218;2023-02-28T09:28:01;-23156.41;;;-0.37;79.57
29385;BME280;16367;48.736;9.218;2023-02-28T09:30:06;-23155.91;;;-0.39;79.12
29385;BME280;16367;48.736;9.218;2023-02-28T09:32:08;-23153.38;;;-0.47;78.77
29385;BME280;16367;48.736;9.218;2023-02-28T09:34:11;-23157.03;;;-0.35;78.39
29385;BME280;16367;48.736;9.218;2023-02-28T09:36:14;-23158.47;;;-0.31;78.47
29385;BME280;16367;48.736;9.218;2023-02-28T09:38:17;-23154.47;;;-0.43;78.23
29385;BME280;16367;48.736;9.218;2023-02-28T09:40:23;-23154.97;;;-0.42;78.41
29385;BME280;16367;48.736;9.218;2023-02-28T09:42:28;-23155.44;;;-0.40;78.10
29385;BME280;16367;48.736;9.218;2023-02-28T09:44:37;-23153.19;;;-0.47;77.45
29385;BME280;16367;48.736;9.218;2023-02-28T09:46:45;-23156.72;;;-0.36;77.87
29385;BME280;16367;48.736;9.218;2023-02-28T09:48:50;-23150.97;;;-0.54;77.14
29385;BME280;16367;48.736;9.218;2023-02-28T09:50:59;-23156.88;;;-0.36;77.87
29385;BME280;16367;48.736;9.218;2023-02-28T09:53:06;-23159.28;;;-0.28;77.36
29385;BME280;16367;48.736;9.218;2023-02-28T09:55:25;-23162.47;;;-0.18;76.88
29385;BME280;16367;48.736;9.218;2023-02-28T09:57:37;-23163.28;;;-0.16;76.46
29385;BME280;16367;48.736;9.218;2023-02-28T09:59:54;-23170.16;;;0.06;76.25
29385;BME280;16367;48.736;9.218;2023-02-28T10:02:02;-23167.25;;;-0.03;75.82
29385;BME280;16367;48.736;9.218;2023-02-28T10:04:12;-23167.25;;;-0.03;75.75
29385;BME280;16367;48.736;9.218;2023-02-28T10:06:18;-23165.34;;;-0.09;75.45
29385;BME280;16367;48.736;9.218;2023-02-28T10:08:26;-23163.75;;;-0.14;76.51
29385;BME280;16367;48.736;9.218;2023-02-28T10:10:38;-23166.31;;;-0.06;75.41
29385;BME280;16367;48.736;9.218;2023-02-28T10:12:43;-23166.63;;;-0.05;75.77
29385;BME280;16367;48.736;9.218;2023-02-28T10:14:49;-23170.16;;;0.06;75.59
29385;BME280;16367;48.736;9.218;2023-02-28T10:16:56;-23169.66;;;0.05;75.69
29385;BME280;16367;48.736;9.218;2023-02-28T10:19:03;-23169.50;;;0.04;75.29
29385;BME280;16367;48.736;9.218;2023-02-28T10:21:13;-23171.25;;;0.10;74.97
29385;BME280;16367;48.736;9.218;2023-02-28T10:23:21;-23168.22;;;0.00;75.56
29385;BME280;16367;48.736;9.218;2023-02-28T10:25:28;-23175.09;;;0.22;74.74
29385;BME280;16367;48.736;9.218;2023-02-28T10:27:32;-23182.28;;;0.44;73.57
29385;BME280;16367;48.736;9.218;2023-02-28T10:29:35;-23170.47;;;0.07;73.54
29385;BME280;16367;48.736;9.218;2023-02-28T10:31:38;-23179.72;;;0.36;73.53
29385;BME280;16367;48.736;9.218;2023-02-28T10:33:41;-23180.38;;;0.38;73.48
29385;BME280;16367;48.736;9.218;2023-02-28T10:35:44;-23170.16;;;0.06;74.08
29385;BME280;16367;48.736;9.218;2023-02-28T10:37:49;-23179.88;;;0.37;72.90
29385;BME280;16367;48.736;9.218;2023-02-28T10:39:52;-23185.78;;;0.55;72.67
29385;BME280;16367;48.736;9.218;2023-02-28T10:41:55;-23185.47;;;0.54;72.50
29385;BME280;16367;48.736;9.218;2023-02-28T10:44:15;-23197.28;;;0.92;72.21
29385;BME280;16367;48.736;9.218;2023-02-28T10:46:20;-23184.19;;;0.50;71.60
29385;BME280;16367;48.736;9.218;2023-02-28T10:48:37;-23201.13;;;1.04;70.44
29385;BME280;16367;48.736;9.218;2023-02-28T10:50:43;-23194.75;;;0.84;70.70
29385;BME280;16367;48.736;9.218;2023-02-28T10:52:47;-23194.75;;;0.84;70.62
29385;BME280;16367;48.736;9.218;2023-02-28T10:54:50;-23197.47;;;0.92;70.45
29385;BME280;16367;48.736;9.218;2023-02-28T10:57:17;-23209.75;;;1.31;69.36
29385;BME280;16367;48.736;9.218;2023-02-28T10:59:30;-23198.88;;;0.97;69.22
29385;BME280;16367;48.736;9.218;2023-02-28T11:01:38;-23204.16;;;1.13;68.76